createdAt,value
2022-10-07T00:01:04.610Z,101757.00
2022-10-07T00:03:32.993Z,101759.00
2022-10-07T00:06:14.505Z,101749.00
2022-10-07T00:08:45.256Z,101755.00
2022-10-07T00:11:18.999Z,101747.00
2022-10-07T00:13:48.163Z,101744.00
2022-10-07T00:16:22.680Z,101755.00
2022-10-07T00:18:58.053Z,101748.00
2022-10-07T00:21:31.352Z,101753.00
2022-10-07T00:23:59.612Z,101745.00
2022-10-07T00:26:30.491Z,101741.00
2022-10-07T00:28:58.726Z,101739.00
2022-10-07T00:31:28.939Z,101739.00
2022-10-07T00:33:57.603Z,101739.00
2022-10-07T00:36:27.739Z,101738.00
2022-10-07T00:39:07.426Z,101735.00
2022-10-07T00:41:40.778Z,101733.00
2022-10-07T00:44:36.535Z,101727.00
2022-10-07T00:47:04.460Z,101716.00
2022-10-07T00:49:45.221Z,101721.00
2022-10-07T00:52:14.934Z,101718.00
2022-10-07T00:54:43.470Z,101719.00
2022-10-07T00:57:11.585Z,101714.00
2022-10-07T00:59:40.155Z,101704.00
2022-10-07T01:02:10.293Z,101703.00
2022-10-07T01:04:38.848Z,101699.00
2022-10-07T01:07:07.236Z,101692.00
2022-10-07T01:09:35.113Z,101686.00
2022-10-07T01:12:37.405Z,101689.00
2022-10-07T01:15:27.728Z,101688.00
2022-10-07T01:18:14.126Z,101687.00
2022-10-07T01:21:08.876Z,101678.00
2022-10-07T01:24:16.085Z,101671.00
2022-10-07T01:27:03.956Z,101673.00
2022-10-07T01:29:41.372Z,101676.00
2022-10-07T01:32:32.690Z,101671.00
2022-10-07T01:35:06.047Z,101669.00
2022-10-07T01:37:37.796Z,101666.00
2022-10-07T01:40:06.690Z,101667.00
2022-10-07T01:42:34.712Z,101653.00
2022-10-07T01:45:04.006Z,101651.00
2022-10-07T01:47:31.864Z,101653.00
2022-10-07T01:49:59.654Z,101647.00
2022-10-07T01:52:56.676Z,101643.00
2022-10-07T01:55:45.354Z,101641.00
2022-10-07T01:58:34.929Z,101636.00
2022-10-07T02:01:07.681Z,101627.00
2022-10-07T02:03:40.530Z,101631.00
2022-10-07T02:06:30.886Z,101631.00
2022-10-07T02:09:02.180Z,101630.00
2022-10-07T02:11:33.049Z,101617.00
2022-10-07T02:14:14.574Z,101617.00
2022-10-07T02:16:45.179Z,101612.00
2022-10-07T02:19:24.238Z,101604.00
2022-10-07T02:21:53.609Z,101603.00
2022-10-07T02:24:23.719Z,101605.00
2022-10-07T02:26:52.834Z,101594.00
2022-10-07T02:29:22.234Z,101608.00
2022-10-07T02:31:53.597Z,101603.00
2022-10-07T02:34:22.892Z,101606.00
2022-10-07T02:37:01.873Z,101605.00
2022-10-07T02:39:32.252Z,101601.00
2022-10-07T02:42:10.357Z,101603.00
2022-10-07T02:44:44.150Z,101593.00
2022-10-07T02:47:16.666Z,101586.00
2022-10-07T02:49:47.319Z,101587.00
2022-10-07T02:52:16.952Z,101595.00
2022-10-07T02:54:56.561Z,101591.00
2022-10-07T02:57:26.583Z,101584.00
2022-10-07T02:59:54.927Z,101596.00
2022-10-07T03:02:38.011Z,101578.00
2022-10-07T03:05:08.069Z,101587.00
2022-10-07T03:07:36.991Z,101592.00
2022-10-07T03:10:09.090Z,101582.00
2022-10-07T03:12:37.740Z,101582.00
2022-10-07T03:15:06.372Z,101583.00
2022-10-07T03:17:34.320Z,101571.00
2022-10-07T03:20:02.436Z,101576.00
2022-10-07T03:22:31.540Z,101580.00
2022-10-07T03:24:59.331Z,101573.00
2022-10-07T03:27:27.272Z,101571.00
2022-10-07T03:29:55.394Z,101567.00
2022-10-07T03:32:23.314Z,101569.00
2022-10-07T03:34:53.030Z,101559.00
2022-10-07T03:37:23.997Z,101558.00
2022-10-07T03:39:52.972Z,101551.00
2022-10-07T03:42:21.258Z,101548.00
2022-10-07T03:44:50.207Z,101549.00
2022-10-07T03:47:19.168Z,101552.00
2022-10-07T03:49:47.513Z,101552.00
2022-10-07T03:52:15.250Z,101558.00
2022-10-07T03:54:43.789Z,101557.00
2022-10-07T03:57:30.081Z,101554.00
2022-10-07T04:00:00.333Z,101553.00
2022-10-07T04:02:28.752Z,101542.00
2022-10-07T04:04:57.345Z,101538.00
2022-10-07T04:07:25.494Z,101533.00
2022-10-07T04:09:53.302Z,101537.00
2022-10-07T04:12:21.356Z,101535.00
2022-10-07T04:14:49.212Z,101522.00
2022-10-07T04:17:21.999Z,101528.00
2022-10-07T04:19:50.052Z,101524.00
2022-10-07T04:22:18.524Z,101518.00
2022-10-07T04:25:09.015Z,101519.00
2022-10-07T04:27:51.133Z,101517.00
2022-10-07T04:30:20.821Z,101515.00
2022-10-07T04:32:52.295Z,101520.00
2022-10-07T04:35:24.004Z,101518.00
2022-10-07T04:37:54.807Z,101515.00
2022-10-07T04:40:25.463Z,101520.00
2022-10-07T04:43:11.883Z,101505.00
2022-10-07T04:45:41.042Z,101511.00
2022-10-07T04:48:10.392Z,101514.00
2022-10-07T04:50:39.789Z,101511.00
2022-10-07T04:53:11.055Z,101514.00
2022-10-07T04:55:40.859Z,101507.00
2022-10-07T04:58:09.987Z,101506.00
2022-10-07T05:00:43.746Z,101497.00
2022-10-07T05:03:12.857Z,101498.00
2022-10-07T05:05:45.813Z,101495.00
2022-10-07T05:08:16.062Z,101499.00
2022-10-07T05:10:45.874Z,101498.00
2022-10-07T05:13:17.178Z,101495.00
2022-10-07T05:15:57.938Z,101492.00
2022-10-07T05:18:27.352Z,101490.00
2022-10-07T05:20:57.809Z,101482.00
2022-10-07T05:23:29.053Z,101485.00
2022-10-07T05:26:02.158Z,101481.00
2022-10-07T05:28:32.157Z,101482.00
2022-10-07T05:31:18.163Z,101478.00
2022-10-07T05:33:50.543Z,101476.00
2022-10-07T05:36:24.144Z,101475.00
2022-10-07T05:38:58.353Z,101467.00
2022-10-07T05:41:38.451Z,101473.00
2022-10-07T05:44:13.377Z,101467.00
2022-10-07T05:46:42.227Z,101465.00
2022-10-07T05:49:10.528Z,101465.00
2022-10-07T05:51:38.358Z,101465.00
2022-10-07T05:54:07.084Z,101466.00
2022-10-07T05:56:40.396Z,101465.00
2022-10-07T05:59:08.819Z,101464.00
2022-10-07T06:01:38.019Z,101466.00
2022-10-07T06:04:12.562Z,101468.00
2022-10-07T06:06:43.531Z,101477.00
2022-10-07T06:09:31.651Z,101473.00
2022-10-07T06:12:21.753Z,101467.00
2022-10-07T06:14:51.292Z,101464.00
2022-10-07T06:17:18.968Z,101458.00
2022-10-07T06:19:48.174Z,101461.00
2022-10-07T06:22:18.147Z,101461.00
2022-10-07T06:24:47.215Z,101458.00
2022-10-07T06:27:16.113Z,101458.00
2022-10-07T06:29:45.504Z,101463.00
2022-10-07T06:32:13.515Z,101464.00
2022-10-07T06:34:42.345Z,101463.00
2022-10-07T06:37:10.615Z,101468.00
2022-10-07T06:39:38.295Z,101463.00
2022-10-07T06:42:06.105Z,101469.00
2022-10-07T06:45:07.096Z,101462.00
2022-10-07T06:47:36.457Z,101468.00
2022-10-07T06:50:05.331Z,101462.00
2022-10-07T06:52:33.306Z,101464.00
2022-10-07T06:55:01.338Z,101468.00
2022-10-07T06:57:45.260Z,101466.00
2022-10-07T07:00:15.413Z,101461.00
2022-10-07T07:02:45.116Z,101468.00
2022-10-07T07:05:14.775Z,101458.00
2022-10-07T07:07:44.455Z,101453.00
2022-10-07T07:10:12.752Z,101456.00
2022-10-07T07:12:44.380Z,101451.00
2022-10-07T07:15:12.608Z,101467.00
2022-10-07T07:17:41.237Z,101461.00
2022-10-07T07:20:10.163Z,101467.00
2022-10-07T07:22:39.439Z,101456.00
2022-10-07T07:25:10.167Z,101454.00
2022-10-07T07:27:39.127Z,101443.00
2022-10-07T07:30:08.625Z,101448.00
2022-10-07T07:32:36.432Z,101445.00
2022-10-07T07:35:04.664Z,101445.00
2022-10-07T07:37:32.713Z,101450.00
2022-10-07T07:40:00.905Z,101449.00
2022-10-07T07:42:28.677Z,101452.00
2022-10-07T07:44:58.950Z,101446.00
2022-10-07T07:47:28.152Z,101452.00
2022-10-07T07:49:56.558Z,101439.00
2022-10-07T07:52:29.858Z,101448.00
2022-10-07T07:54:59.486Z,101454.00
2022-10-07T07:57:28.529Z,101447.00
2022-10-07T07:59:59.777Z,101439.00
2022-10-07T08:02:29.428Z,101443.00
2022-10-07T08:04:57.353Z,101435.00
2022-10-07T08:07:26.991Z,101432.00
2022-10-07T08:09:55.975Z,101430.00
2022-10-07T08:12:23.956Z,101420.00
2022-10-07T08:14:54.084Z,101422.00
2022-10-07T08:17:22.531Z,101419.00
2022-10-07T08:19:50.820Z,101425.00
2022-10-07T08:22:19.446Z,101418.00
2022-10-07T08:24:50.896Z,101414.00
2022-10-07T08:27:20.979Z,101406.00
2022-10-07T08:29:49.773Z,101402.00
2022-10-07T08:32:17.596Z,101404.00
2022-10-07T08:34:45.381Z,101405.00
2022-10-07T08:37:13.137Z,101406.00
2022-10-07T08:39:40.789Z,101406.00
2022-10-07T08:42:37.725Z,101398.00
2022-10-07T08:45:08.765Z,101399.00
2022-10-07T08:47:46.768Z,101402.00
2022-10-07T08:50:32.690Z,101392.00
2022-10-07T08:53:05.721Z,101405.00
2022-10-07T08:55:44.044Z,101389.00
2022-10-07T08:58:26.839Z,101399.00
2022-10-07T09:01:07.578Z,101396.00
2022-10-07T09:03:56.093Z,101399.00
2022-10-07T09:06:32.508Z,101400.00
2022-10-07T09:09:04.380Z,101398.00
2022-10-07T09:11:32.810Z,101389.00
2022-10-07T09:14:33.006Z,101394.00
2022-10-07T09:17:23.547Z,101393.00
2022-10-07T09:19:52.890Z,101390.00
2022-10-07T09:22:24.046Z,101391.00
2022-10-07T09:24:59.241Z,101386.00
2022-10-07T09:27:27.140Z,101380.00
2022-10-07T09:29:55.984Z,101379.00
2022-10-07T09:32:23.928Z,101382.00
2022-10-07T09:34:52.558Z,101384.00
2022-10-07T09:37:26.806Z,101379.00
2022-10-07T09:39:58.065Z,101375.00
2022-10-07T09:42:46.190Z,101373.00
2022-10-07T09:45:23.571Z,101373.00
2022-10-07T09:47:53.814Z,101363.00
2022-10-07T09:50:40.203Z,101373.00
2022-10-07T09:53:35.844Z,101375.00
2022-10-07T09:56:03.513Z,101366.00
2022-10-07T09:58:32.650Z,101371.00
2022-10-07T10:01:02.292Z,101377.00
2022-10-07T10:03:35.174Z,101367.00
2022-10-07T10:06:09.031Z,101366.00
2022-10-07T10:08:39.731Z,101365.00
2022-10-07T10:11:20.962Z,101366.00
2022-10-07T10:13:50.568Z,101361.00
2022-10-07T10:16:37.661Z,101351.00
2022-10-07T10:19:26.079Z,101364.00
2022-10-07T10:21:56.490Z,101345.00
2022-10-07T10:24:43.732Z,101352.00
2022-10-07T10:27:25.744Z,101343.00
2022-10-07T10:29:57.772Z,101340.00
2022-10-07T10:33:04.682Z,101335.00
2022-10-07T10:35:45.100Z,101328.00
2022-10-07T10:38:36.003Z,101329.00
2022-10-07T10:41:27.872Z,101325.00
2022-10-07T10:44:51.246Z,101316.00
2022-10-07T10:47:44.865Z,101314.00
2022-10-07T10:50:21.520Z,101305.00
2022-10-07T10:52:58.301Z,101295.00
2022-10-07T10:56:13.942Z,101304.00
2022-10-07T10:59:03.489Z,101306.00
2022-10-07T11:01:43.103Z,101297.00
2022-10-07T11:04:40.152Z,101289.00
2022-10-07T11:07:22.514Z,101286.00
2022-10-07T11:10:00.648Z,101280.00
2022-10-07T11:12:44.633Z,101278.00
2022-10-07T11:15:28.011Z,101274.00
2022-10-07T11:18:00.146Z,101270.00
2022-10-07T11:20:34.435Z,101261.00
2022-10-07T11:23:23.096Z,101253.00
2022-10-07T11:26:17.869Z,101254.00
2022-10-07T11:28:45.952Z,101243.00
2022-10-07T11:31:27.478Z,101238.00
2022-10-07T11:34:12.761Z,101233.00
2022-10-07T11:37:03.324Z,101238.00
2022-10-07T11:39:31.383Z,101234.00
2022-10-07T11:42:29.624Z,101222.00
2022-10-07T11:45:04.600Z,101223.00
2022-10-07T11:47:37.109Z,101224.00
2022-10-07T11:50:15.856Z,101213.00
2022-10-07T11:52:47.252Z,101203.00
2022-10-07T11:55:33.751Z,101203.00
2022-10-07T11:58:04.458Z,101192.00
2022-10-07T12:00:34.332Z,101194.00
2022-10-07T12:03:20.132Z,101195.00
2022-10-07T12:05:50.697Z,101178.00
2022-10-07T12:08:27.004Z,101182.00
2022-10-07T12:11:14.701Z,101168.00
2022-10-07T12:13:51.055Z,101171.00
2022-10-07T12:16:31.538Z,101156.00
2022-10-07T12:19:08.014Z,101151.00
2022-10-07T12:22:00.379Z,101153.00
2022-10-07T12:24:36.116Z,101149.00
2022-10-07T12:27:24.607Z,101151.00
2022-10-07T12:29:58.965Z,101140.00
2022-10-07T12:32:53.277Z,101139.00
2022-10-07T12:35:34.561Z,101135.00
2022-10-07T12:38:19.140Z,101131.00
2022-10-07T12:41:26.024Z,101124.00
2022-10-07T12:44:23.379Z,101116.00
2022-10-07T12:46:54.870Z,101118.00
2022-10-07T12:49:41.303Z,101118.00
2022-10-07T12:52:14.317Z,101116.00
2022-10-07T12:54:48.281Z,101111.00
2022-10-07T12:57:24.900Z,101107.00
2022-10-07T13:00:08.386Z,101109.00
2022-10-07T13:03:07.094Z,101096.00
2022-10-07T13:06:00.970Z,101100.00
2022-10-07T13:08:46.218Z,101094.00
2022-10-07T13:11:35.711Z,101081.00
2022-10-07T13:14:24.705Z,101074.00
2022-10-07T13:16:58.273Z,101068.00
2022-10-07T13:19:40.183Z,101071.00
2022-10-07T13:22:14.337Z,101068.00
2022-10-07T13:24:50.227Z,101062.00
2022-10-07T13:27:21.066Z,101062.00
2022-10-07T13:29:49.017Z,101055.00
2022-10-07T13:32:22.607Z,101054.00
2022-10-07T13:34:52.346Z,101049.00
2022-10-07T13:37:37.891Z,101045.00
2022-10-07T13:40:22.403Z,101048.00
2022-10-07T13:42:59.396Z,101045.00
2022-10-07T13:45:28.495Z,101034.00
2022-10-07T13:47:58.016Z,101035.00
2022-10-07T13:50:30.956Z,101029.00
2022-10-07T13:52:58.999Z,101028.00
2022-10-07T13:55:26.716Z,101020.00
2022-10-07T13:57:57.495Z,101019.00
2022-10-07T14:00:26.177Z,101019.00
2022-10-07T14:02:54.334Z,101011.00
2022-10-07T14:05:28.701Z,101010.00
2022-10-07T14:08:16.409Z,101009.00
2022-10-07T14:11:15.783Z,101000.00
2022-10-07T14:13:44.397Z,101001.00
2022-10-07T14:16:22.345Z,100991.00
2022-10-07T14:18:52.934Z,100987.00
2022-10-07T14:21:20.805Z,100985.00
2022-10-07T14:23:51.016Z,100990.00
2022-10-07T14:26:19.291Z,100977.00
2022-10-07T14:28:47.311Z,100973.00
2022-10-07T14:31:39.412Z,100964.00
2022-10-07T14:34:33.028Z,100968.00
2022-10-07T14:37:12.607Z,100960.00
2022-10-07T14:39:42.749Z,100963.00
2022-10-07T14:42:14.093Z,100959.00
2022-10-07T14:44:44.078Z,100953.00
2022-10-07T14:47:19.318Z,100945.00
2022-10-07T14:49:53.336Z,100947.00
2022-10-07T14:52:28.439Z,100941.00
2022-10-07T14:55:05.392Z,100933.00
2022-10-07T14:57:34.259Z,100932.00
2022-10-07T15:00:01.957Z,100932.00
2022-10-07T15:02:30.608Z,100930.00
2022-10-07T15:04:58.555Z,100927.00
2022-10-07T15:07:26.529Z,100922.00
2022-10-07T15:09:54.508Z,100932.00
2022-10-07T15:12:22.351Z,100921.00
2022-10-07T15:14:52.507Z,100925.00
2022-10-07T15:17:20.179Z,100920.00
2022-10-07T15:19:47.884Z,100919.00
2022-10-07T15:22:17.768Z,100914.00
2022-10-07T15:24:45.526Z,100911.00
2022-10-07T15:27:13.416Z,100906.00
2022-10-07T15:29:42.093Z,100906.00
2022-10-07T15:32:09.947Z,100896.00
2022-10-07T15:34:37.931Z,100901.00
2022-10-07T15:37:06.347Z,100897.00
2022-10-07T15:39:38.796Z,100902.00
2022-10-07T15:42:08.948Z,100900.00
2022-10-07T15:44:36.850Z,100898.00
2022-10-07T15:47:04.619Z,100900.00
2022-10-07T15:49:32.488Z,100895.00
2022-10-07T15:52:01.011Z,100889.00
2022-10-07T15:54:28.940Z,100890.00
2022-10-07T15:56:59.766Z,100883.00
2022-10-07T15:59:27.921Z,100878.00
2022-10-07T16:01:56.021Z,100876.00
2022-10-07T16:04:23.878Z,100871.00
2022-10-07T16:06:51.937Z,100879.00
2022-10-07T16:09:23.463Z,100875.00
2022-10-07T16:11:51.602Z,100872.00
2022-10-07T16:14:19.436Z,100874.00
2022-10-07T16:16:47.292Z,100870.00
2022-10-07T16:19:15.230Z,100869.00
2022-10-07T16:21:43.606Z,100859.00
2022-10-07T16:24:22.220Z,100858.00
2022-10-07T16:26:55.706Z,100857.00
2022-10-07T16:29:42.913Z,100857.00
2022-10-07T16:32:11.776Z,100848.00
2022-10-07T16:34:43.657Z,100846.00
2022-10-07T16:37:12.482Z,100839.00
2022-10-07T16:39:40.433Z,100835.00
2022-10-07T16:42:08.422Z,100836.00
2022-10-07T16:44:36.384Z,100832.00
2022-10-07T16:47:04.109Z,100828.00
2022-10-07T16:49:31.878Z,100830.00
2022-10-07T16:51:59.808Z,100832.00
2022-10-07T16:54:30.487Z,100821.00
2022-10-07T16:56:58.810Z,100829.00
2022-10-07T16:59:26.770Z,100819.00
2022-10-07T17:01:56.096Z,100821.00
2022-10-07T17:04:25.043Z,100819.00
2022-10-07T17:06:53.396Z,100825.00
2022-10-07T17:09:22.159Z,100819.00
2022-10-07T17:11:50.117Z,100817.00
2022-10-07T17:14:20.225Z,100818.00
2022-10-07T17:16:51.012Z,100813.00
2022-10-07T17:19:21.265Z,100812.00
2022-10-07T17:21:50.296Z,100808.00
2022-10-07T17:24:19.120Z,100815.00
2022-10-07T17:26:47.549Z,100801.00
2022-10-07T17:29:21.243Z,100812.00
2022-10-07T17:31:50.944Z,100803.00
2022-10-07T17:34:20.881Z,100812.00
2022-10-07T17:36:50.598Z,100809.00
2022-10-07T17:39:21.555Z,100806.00
2022-10-07T17:41:49.385Z,100799.00
2022-10-07T17:44:17.726Z,100795.00
2022-10-07T17:46:45.523Z,100802.00
2022-10-07T17:49:16.008Z,100792.00
2022-10-07T17:51:44.145Z,100797.00
2022-10-07T17:54:13.714Z,100795.00
2022-10-07T17:56:44.675Z,100784.00
2022-10-07T17:59:12.515Z,100787.00
2022-10-07T18:01:41.480Z,100780.00
2022-10-07T18:04:15.064Z,100789.00
2022-10-07T18:06:43.530Z,100783.00
2022-10-07T18:09:15.184Z,100787.00
2022-10-07T18:12:01.430Z,100781.00
2022-10-07T18:14:53.265Z,100771.00
2022-10-07T18:17:22.062Z,100771.00
2022-10-07T18:19:49.827Z,100771.00
2022-10-07T18:22:17.581Z,100769.00
2022-10-07T18:24:46.369Z,100770.00
2022-10-07T18:27:16.513Z,100764.00
2022-10-07T18:29:44.315Z,100763.00
2022-10-07T18:32:12.319Z,100772.00
2022-10-07T18:34:40.181Z,100768.00
2022-10-07T18:37:07.881Z,100767.00
2022-10-07T18:39:38.773Z,100766.00
2022-10-07T18:42:06.767Z,100761.00
2022-10-07T18:44:34.640Z,100755.00
2022-10-07T18:47:02.508Z,100753.00
2022-10-07T18:49:30.294Z,100756.00
2022-10-07T18:51:58.087Z,100745.00
2022-10-07T18:54:26.196Z,100748.00
2022-10-07T18:56:54.368Z,100742.00
2022-10-07T18:59:22.279Z,100737.00
2022-10-07T19:01:51.094Z,100744.00
2022-10-07T19:04:22.257Z,100733.00
2022-10-07T19:06:49.931Z,100728.00
2022-10-07T19:09:21.998Z,100739.00
2022-10-07T19:11:50.029Z,100734.00
2022-10-07T19:14:18.378Z,100735.00
2022-10-07T19:16:49.393Z,100728.00
2022-10-07T19:19:22.424Z,100731.00
2022-10-07T19:21:52.095Z,100734.00
2022-10-07T19:24:20.459Z,100732.00
2022-10-07T19:26:50.219Z,100732.00
2022-10-07T19:29:18.330Z,100728.00
2022-10-07T19:31:50.223Z,100728.00
2022-10-07T19:34:20.869Z,100729.00
2022-10-07T19:36:49.090Z,100735.00
2022-10-07T19:39:21.835Z,100729.00
2022-10-07T19:41:51.375Z,100733.00
2022-10-07T19:44:19.328Z,100738.00
2022-10-07T19:46:47.280Z,100740.00
2022-10-07T19:49:15.049Z,100740.00
2022-10-07T19:51:45.028Z,100736.00
2022-10-07T19:54:13.455Z,100730.00
2022-10-07T19:56:42.551Z,100726.00
2022-10-07T19:59:12.437Z,100721.00
2022-10-07T20:01:42.654Z,100708.00
2022-10-07T20:04:19.148Z,100717.00
2022-10-07T20:06:47.028Z,100709.00
2022-10-07T20:09:17.044Z,100703.00
2022-10-07T20:11:45.662Z,100709.00
2022-10-07T20:14:13.890Z,100702.00
2022-10-07T20:16:41.864Z,100709.00
2022-10-07T20:19:13.340Z,100705.00
2022-10-07T20:21:41.248Z,100705.00
2022-10-07T20:24:10.156Z,100696.00
2022-10-07T20:26:39.511Z,100697.00
2022-10-07T20:29:10.320Z,100698.00
2022-10-07T20:31:41.339Z,100696.00
2022-10-07T20:34:16.169Z,100700.00
2022-10-07T20:36:44.434Z,100688.00
2022-10-07T20:39:38.249Z,100681.00
2022-10-07T20:42:22.119Z,100683.00
2022-10-07T20:44:50.890Z,100678.00
2022-10-07T20:47:19.816Z,100672.00
2022-10-07T20:49:49.302Z,100679.00
2022-10-07T20:52:19.434Z,100668.00
2022-10-07T20:54:48.108Z,100680.00
2022-10-07T20:57:18.449Z,100675.00
2022-10-07T20:59:46.312Z,100670.00
2022-10-07T21:02:15.810Z,100676.00
2022-10-07T21:04:44.015Z,100672.00
2022-10-07T21:07:11.873Z,100671.00
2022-10-07T21:09:40.124Z,100670.00
2022-10-07T21:12:11.703Z,100671.00
2022-10-07T21:14:39.710Z,100669.00
2022-10-07T21:17:08.101Z,100666.00
2022-10-07T21:19:38.604Z,100669.00
2022-10-07T21:22:06.775Z,100667.00
2022-10-07T21:24:34.726Z,100674.00
2022-10-07T21:27:03.906Z,100661.00
2022-10-07T21:29:31.755Z,100662.00
2022-10-07T21:32:01.018Z,100663.00
2022-10-07T21:34:30.082Z,100657.00
2022-10-07T21:36:57.977Z,100660.00
2022-10-07T21:39:26.600Z,100646.00
2022-10-07T21:41:54.867Z,100638.00
2022-10-07T21:44:22.717Z,100642.00
2022-10-07T21:46:50.868Z,100637.00
2022-10-07T21:49:18.708Z,100636.00
2022-10-07T21:51:47.336Z,100629.00
2022-10-07T21:54:15.647Z,100632.00
2022-10-07T21:56:46.287Z,100628.00
2022-10-07T21:59:14.562Z,100630.00
2022-10-07T22:01:43.331Z,100613.00
2022-10-07T22:04:17.385Z,100615.00
2022-10-07T22:07:04.085Z,100610.00
2022-10-07T22:09:32.190Z,100607.00
2022-10-07T22:11:59.976Z,100600.00
2022-10-07T22:14:27.938Z,100598.00
2022-10-07T22:16:55.735Z,100602.00
2022-10-07T22:19:23.548Z,100603.00
2022-10-07T22:21:51.509Z,100597.00
2022-10-07T22:24:19.147Z,100591.00
2022-10-07T22:26:47.840Z,100588.00
2022-10-07T22:29:17.596Z,100583.00
2022-10-07T22:31:45.701Z,100579.00
2022-10-07T22:34:33.631Z,100577.00
2022-10-07T22:37:01.482Z,100576.00
2022-10-07T22:39:29.675Z,100575.00
2022-10-07T22:41:58.700Z,100571.00
2022-10-07T22:44:28.458Z,100568.00
2022-10-07T22:46:57.094Z,100569.00
2022-10-07T22:49:29.486Z,100564.00
2022-10-07T22:51:59.992Z,100567.00
2022-10-07T22:54:28.482Z,100555.00
2022-10-07T22:56:56.251Z,100557.00
2022-10-07T22:59:23.948Z,100554.00
2022-10-07T23:01:51.564Z,100548.00
2022-10-07T23:04:21.661Z,100548.00
2022-10-07T23:06:49.581Z,100551.00
2022-10-07T23:09:17.328Z,100544.00
2022-10-07T23:11:45.815Z,100547.00
2022-10-07T23:14:13.658Z,100539.00
2022-10-07T23:16:42.135Z,100537.00
2022-10-07T23:19:10.038Z,100533.00
2022-10-07T23:21:37.805Z,100536.00
2022-10-07T23:24:09.010Z,100528.00
2022-10-07T23:26:37.522Z,100523.00
2022-10-07T23:29:05.190Z,100525.00
2022-10-07T23:31:33.712Z,100526.00
2022-10-07T23:34:03.231Z,100526.00
2022-10-07T23:36:31.594Z,100520.00
2022-10-07T23:39:00.763Z,100519.00
2022-10-07T23:41:29.940Z,100509.00
2022-10-07T23:43:59.683Z,100506.00
2022-10-07T23:46:28.697Z,100513.00
2022-10-07T23:48:56.663Z,100508.00
2022-10-07T23:51:27.909Z,100503.00
2022-10-07T23:54:00.478Z,100515.00
2022-10-07T23:56:28.737Z,100505.00
2022-10-07T23:58:56.641Z,100509.00
